sensor_id;sensor_type;location;lat;lon;timestamp;temperature;humidity
43995;DHT22;51687;52.160;5.298;2023-06-14T00:01:20;26.10;34.90
43995;DHT22;51687;52.160;5.298;2023-06-14T00:03:48;26.10;35.30
43995;DHT22;51687;52.160;5.298;2023-06-14T00:06:15;26.00;35.20
43995;DHT22;51687;52.160;5.298;2023-06-14T00:08:42;26.00;35.10
43995;DHT22;51687;52.160;5.298;2023-06-14T00:11:09;26.00;35.20
43995;DHT22;51687;52.160;5.298;2023-06-14T00:13:36;26.00;35.20
43995;DHT22;51687;52.160;5.298;2023-06-14T00:25:52;25.90;35.00
43995;DHT22;51687;52.160;5.298;2023-06-14T00:28:19;25.80;35.20
43995;DHT22;51687;52.160;5.298;2023-06-14T00:30:45;25.80;35.30
43995;DHT22;51687;52.160;5.298;2023-06-14T00:33:13;25.70;35.40
43995;DHT22;51687;52.160;5.298;2023-06-14T00:35:40;25.70;35.20
43995;DHT22;51687;52.160;5.298;2023-06-14T00:38:08;25.70;35.40
43995;DHT22;51687;52.160;5.298;2023-06-14T00:40:35;25.70;35.50
43995;DHT22;51687;52.160;5.298;2023-06-14T00:43:02;25.70;35.60
43995;DHT22;51687;52.160;5.298;2023-06-14T00:45:29;25.60;35.60
43995;DHT22;51687;52.160;5.298;2023-06-14T00:47:58;25.60;35.80
43995;DHT22;51687;52.160;5.298;2023-06-14T00:50:25;25.60;35.90
43995;DHT22;51687;52.160;5.298;2023-06-14T00:52:52;25.60;35.90
43995;DHT22;51687;52.160;5.298;2023-06-14T00:55:19;25.50;36.50
43995;DHT22;51687;52.160;5.298;2023-06-14T00:57:46;25.50;36.00
43995;DHT22;51687;52.160;5.298;2023-06-14T01:00:14;25.50;36.00
43995;DHT22;51687;52.160;5.298;2023-06-14T01:02:41;25.40;36.00
43995;DHT22;51687;52.160;5.298;2023-06-14T01:05:09;25.40;35.90
43995;DHT22;51687;52.160;5.298;2023-06-14T01:07:43;25.30;35.80
43995;DHT22;51687;52.160;5.298;2023-06-14T01:20:45;25.30;35.70
43995;DHT22;51687;52.160;5.298;2023-06-14T01:23:19;25.20;36.10
43995;DHT22;51687;52.160;5.298;2023-06-14T01:25:47;25.20;36.30
43995;DHT22;51687;52.160;5.298;2023-06-14T01:28:21;25.20;36.20
43995;DHT22;51687;52.160;5.298;2023-06-14T01:30:51;25.20;36.30
43995;DHT22;51687;52.160;5.298;2023-06-14T01:50:36;25.10;36.30
43995;DHT22;51687;52.160;5.298;2023-06-14T01:53:07;24.90;36.80
43995;DHT22;51687;52.160;5.298;2023-06-14T01:55:34;24.90;37.20
43995;DHT22;51687;52.160;5.298;2023-06-14T01:58:04;24.90;37.10
43995;DHT22;51687;52.160;5.298;2023-06-14T02:00:32;24.90;36.90
43995;DHT22;51687;52.160;5.298;2023-06-14T02:02:59;24.80;37.40
43995;DHT22;51687;52.160;5.298;2023-06-14T02:05:27;24.80;37.30
43995;DHT22;51687;52.160;5.298;2023-06-14T02:07:54;24.80;37.30
43995;DHT22;51687;52.160;5.298;2023-06-14T02:10:21;24.70;37.40
43995;DHT22;51687;52.160;5.298;2023-06-14T02:25:08;24.70;37.50
43995;DHT22;51687;52.160;5.298;2023-06-14T02:27:36;24.50;37.10
43995;DHT22;51687;52.160;5.298;2023-06-14T02:30:03;24.60;37.00
43995;DHT22;51687;52.160;5.298;2023-06-14T02:32:30;24.50;36.70
43995;DHT22;51687;52.160;5.298;2023-06-14T02:34:58;24.50;36.60
43995;DHT22;51687;52.160;5.298;2023-06-14T02:37:25;24.50;36.50
43995;DHT22;51687;52.160;5.298;2023-06-14T02:39:51;24.40;36.50
43995;DHT22;51687;52.160;5.298;2023-06-14T02:42:18;24.40;36.60
43995;DHT22;51687;52.160;5.298;2023-06-14T02:44:45;24.40;36.60
43995;DHT22;51687;52.160;5.298;2023-06-14T02:47:13;24.40;36.80
43995;DHT22;51687;52.160;5.298;2023-06-14T02:49:39;24.40;36.90
43995;DHT22;51687;52.160;5.298;2023-06-14T02:52:06;24.40;37.00
43995;DHT22;51687;52.160;5.298;2023-06-14T02:54:33;24.30;36.90
43995;DHT22;51687;52.160;5.298;2023-06-14T02:57:00;24.30;37.00
43995;DHT22;51687;52.160;5.298;2023-06-14T02:59:27;24.30;37.00
43995;DHT22;51687;52.160;5.298;2023-06-14T03:01:53;24.20;37.00
43995;DHT22;51687;52.160;5.298;2023-06-14T03:04:20;24.20;37.10
43995;DHT22;51687;52.160;5.298;2023-06-14T03:06:47;24.20;36.90
43995;DHT22;51687;52.160;5.298;2023-06-14T03:09:16;24.20;37.10
43995;DHT22;51687;52.160;5.298;2023-06-14T03:11:44;24.20;37.00
43995;DHT22;51687;52.160;5.298;2023-06-14T03:14:11;24.10;37.00
43995;DHT22;51687;52.160;5.298;2023-06-14T03:16:40;24.10;37.00
43995;DHT22;51687;52.160;5.298;2023-06-14T03:19:08;24.10;37.10
43995;DHT22;51687;52.160;5.298;2023-06-14T03:21:34;24.10;37.10
43995;DHT22;51687;52.160;5.298;2023-06-14T03:24:01;24.00;37.10
43995;DHT22;51687;52.160;5.298;2023-06-14T03:26:29;24.00;37.10
43995;DHT22;51687;52.160;5.298;2023-06-14T03:28:57;24.00;37.20
43995;DHT22;51687;52.160;5.298;2023-06-14T03:31:24;24.00;37.20
43995;DHT22;51687;52.160;5.298;2023-06-14T03:33:51;23.90;37.20
43995;DHT22;51687;52.160;5.298;2023-06-14T03:36:18;24.00;37.40
43995;DHT22;51687;52.160;5.298;2023-06-14T03:38:46;23.90;37.30
43995;DHT22;51687;52.160;5.298;2023-06-14T03:41:12;23.80;37.30
43995;DHT22;51687;52.160;5.298;2023-06-14T03:43:39;23.80;37.40
43995;DHT22;51687;52.160;5.298;2023-06-14T03:46:06;23.80;37.50
43995;DHT22;51687;52.160;5.298;2023-06-14T03:48:33;23.80;37.50
43995;DHT22;51687;52.160;5.298;2023-06-14T03:51:00;23.70;37.50
43995;DHT22;51687;52.160;5.298;2023-06-14T03:53:27;23.70;37.50
43995;DHT22;51687;52.160;5.298;2023-06-14T03:55:56;23.70;37.60
43995;DHT22;51687;52.160;5.298;2023-06-14T03:58:23;23.70;37.40
43995;DHT22;51687;52.160;5.298;2023-06-14T04:00:50;23.70;37.60
43995;DHT22;51687;52.160;5.298;2023-06-14T04:03:17;23.70;37.90
43995;DHT22;51687;52.160;5.298;2023-06-14T04:05:44;23.70;37.90
43995;DHT22;51687;52.160;5.298;2023-06-14T04:08:11;23.70;38.00
43995;DHT22;51687;52.160;5.298;2023-06-14T04:10:41;23.70;38.10
43995;DHT22;51687;52.160;5.298;2023-06-14T04:13:08;23.60;38.10
43995;DHT22;51687;52.160;5.298;2023-06-14T04:15:39;23.60;38.10
43995;DHT22;51687;52.160;5.298;2023-06-14T04:18:08;23.60;38.10
43995;DHT22;51687;52.160;5.298;2023-06-14T04:20:35;23.60;38.10
43995;DHT22;51687;52.160;5.298;2023-06-14T04:23:12;23.60;38.20
43995;DHT22;51687;52.160;5.298;2023-06-14T04:25:39;23.60;38.20
43995;DHT22;51687;52.160;5.298;2023-06-14T04:28:06;23.60;38.30
43995;DHT22;51687;52.160;5.298;2023-06-14T04:30:37;23.50;38.30
43995;DHT22;51687;52.160;5.298;2023-06-14T04:33:05;23.50;38.50
43995;DHT22;51687;52.160;5.298;2023-06-14T04:35:32;23.50;38.50
43995;DHT22;51687;52.160;5.298;2023-06-14T04:37:59;23.50;38.50
43995;DHT22;51687;52.160;5.298;2023-06-14T06:43:46;23.50;38.60
43995;DHT22;51687;52.160;5.298;2023-06-14T06:46:13;25.30;35.60
43995;DHT22;51687;52.160;5.298;2023-06-14T06:48:40;25.30;35.60
43995;DHT22;51687;52.160;5.298;2023-06-14T06:51:07;25.30;35.80
43995;DHT22;51687;52.160;5.298;2023-06-14T06:53:33;25.30;35.60
43995;DHT22;51687;52.160;5.298;2023-06-14T06:56:09;25.30;35.70
43995;DHT22;51687;52.160;5.298;2023-06-14T06:58:36;25.40;35.50
43995;DHT22;51687;52.160;5.298;2023-06-14T07:01:03;25.30;35.20
43995;DHT22;51687;52.160;5.298;2023-06-14T07:03:30;25.40;35.50
43995;DHT22;51687;52.160;5.298;2023-06-14T07:05:57;25.40;35.60
43995;DHT22;51687;52.160;5.298;2023-06-14T07:08:24;25.40;35.30
43995;DHT22;51687;52.160;5.298;2023-06-14T07:10:50;25.40;35.30
43995;DHT22;51687;52.160;5.298;2023-06-14T07:13:17;25.40;35.40
43995;DHT22;51687;52.160;5.298;2023-06-14T07:15:44;25.40;35.60
43995;DHT22;51687;52.160;5.298;2023-06-14T07:18:11;25.40;35.00
43995;DHT22;51687;52.160;5.298;2023-06-14T07:20:42;25.40;34.70
43995;DHT22;51687;52.160;5.298;2023-06-14T07:23:09;25.40;35.40
43995;DHT22;51687;52.160;5.298;2023-06-14T07:25:37;25.40;35.30
43995;DHT22;51687;52.160;5.298;2023-06-14T07:28:04;25.40;35.30
43995;DHT22;51687;52.160;5.298;2023-06-14T07:30:31;25.50;35.00
43995;DHT22;51687;52.160;5.298;2023-06-14T07:32:58;25.50;35.10
43995;DHT22;51687;52.160;5.298;2023-06-14T07:35:24;25.50;35.00
43995;DHT22;51687;52.160;5.298;2023-06-14T07:37:51;25.40;34.80
43995;DHT22;51687;52.160;5.298;2023-06-14T07:40:19;25.50;34.40
43995;DHT22;51687;52.160;5.298;2023-06-14T07:42:46;25.50;35.00
43995;DHT22;51687;52.160;5.298;2023-06-14T07:45:16;25.50;34.50
43995;DHT22;51687;52.160;5.298;2023-06-14T07:47:43;25.50;35.40
43995;DHT22;51687;52.160;5.298;2023-06-14T07:50:11;25.50;34.00
43995;DHT22;51687;52.160;5.298;2023-06-14T07:52:39;25.50;34.60
43995;DHT22;51687;52.160;5.298;2023-06-14T07:55:06;25.50;35.10
43995;DHT22;51687;52.160;5.298;2023-06-14T07:57:33;25.50;34.70
43995;DHT22;51687;52.160;5.298;2023-06-14T08:00:00;25.50;34.20
43995;DHT22;51687;52.160;5.298;2023-06-14T08:02:27;25.50;34.00
43995;DHT22;51687;52.160;5.298;2023-06-14T08:04:54;25.50;34.10
43995;DHT22;51687;52.160;5.298;2023-06-14T08:07:20;25.50;34.00
43995;DHT22;51687;52.160;5.298;2023-06-14T08:09:47;25.50;34.50
43995;DHT22;51687;52.160;5.298;2023-06-14T08:12:14;25.50;34.20
43995;DHT22;51687;52.160;5.298;2023-06-14T08:14:42;25.50;34.10
43995;DHT22;51687;52.160;5.298;2023-06-14T08:17:09;25.50;34.00
43995;DHT22;51687;52.160;5.298;2023-06-14T08:19:36;25.50;34.00
43995;DHT22;51687;52.160;5.298;2023-06-14T08:22:03;25.50;33.70
43995;DHT22;51687;52.160;5.298;2023-06-14T08:24:30;25.50;33.60
43995;DHT22;51687;52.160;5.298;2023-06-14T08:26:57;25.50;33.20
43995;DHT22;51687;52.160;5.298;2023-06-14T08:29:24;25.50;33.20
43995;DHT22;51687;52.160;5.298;2023-06-14T08:31:51;25.50;34.00
43995;DHT22;51687;52.160;5.298;2023-06-14T08:34:17;25.50;33.10
43995;DHT22;51687;52.160;5.298;2023-06-14T08:36:44;25.50;32.90
43995;DHT22;51687;52.160;5.298;2023-06-14T08:39:11;25.50;32.60
43995;DHT22;51687;52.160;5.298;2023-06-14T08:41:38;25.50;32.10
43995;DHT22;51687;52.160;5.298;2023-06-14T08:44:05;25.50;33.00
43995;DHT22;51687;52.160;5.298;2023-06-14T09:33:42;25.50;32.30
43995;DHT22;51687;52.160;5.298;2023-06-14T09:36:22;26.00;35.20
43995;DHT22;51687;52.160;5.298;2023-06-14T09:39:01;26.00;31.10
43995;DHT22;51687;52.160;5.298;2023-06-14T09:41:38;26.00;32.90
43995;DHT22;51687;52.160;5.298;2023-06-14T10:14:05;26.00;36.10
43995;DHT22;51687;52.160;5.298;2023-06-14T10:16:34;26.30;30.20
43995;DHT22;51687;52.160;5.298;2023-06-14T10:19:33;26.30;30.80
43995;DHT22;51687;52.160;5.298;2023-06-14T13:54:12;26.30;32.30
43995;DHT22;51687;52.160;5.298;2023-06-14T13:56:39;28.00;29.40
43995;DHT22;51687;52.160;5.298;2023-06-14T13:59:05;27.90;29.30
43995;DHT22;51687;52.160;5.298;2023-06-14T14:01:32;27.90;28.60
43995;DHT22;51687;52.160;5.298;2023-06-14T14:03:59;27.90;28.50
43995;DHT22;51687;52.160;5.298;2023-06-14T14:06:27;27.90;29.10
43995;DHT22;51687;52.160;5.298;2023-06-14T14:08:53;27.90;29.80
43995;DHT22;51687;52.160;5.298;2023-06-14T14:11:20;27.90;29.10
43995;DHT22;51687;52.160;5.298;2023-06-14T14:13:47;28.00;29.20
43995;DHT22;51687;52.160;5.298;2023-06-14T14:16:14;28.00;29.00
43995;DHT22;51687;52.160;5.298;2023-06-14T14:18:41;28.00;29.20
43995;DHT22;51687;52.160;5.298;2023-06-14T14:21:08;28.00;29.50
43995;DHT22;51687;52.160;5.298;2023-06-14T14:23:36;28.00;29.00
43995;DHT22;51687;52.160;5.298;2023-06-14T20:49:52;28.00;29.40
43995;DHT22;51687;52.160;5.298;2023-06-14T20:52:18;27.10;34.30
43995;DHT22;51687;52.160;5.298;2023-06-14T20:54:45;27.00;34.70
43995;DHT22;51687;52.160;5.298;2023-06-14T20:57:14;26.90;34.90
43995;DHT22;51687;52.160;5.298;2023-06-14T20:59:44;26.90;34.90
43995;DHT22;51687;52.160;5.298;2023-06-14T21:02:12;26.90;35.00
43995;DHT22;51687;52.160;5.298;2023-06-14T21:04:42;26.90;35.30
43995;DHT22;51687;52.160;5.298;2023-06-14T21:07:10;26.80;35.30
43995;DHT22;51687;52.160;5.298;2023-06-14T21:09:37;26.80;35.50
43995;DHT22;51687;52.160;5.298;2023-06-14T21:12:04;26.70;35.50
43995;DHT22;51687;52.160;5.298;2023-06-14T21:14:32;26.70;35.60
43995;DHT22;51687;52.160;5.298;2023-06-14T21:16:59;26.60;35.60
43995;DHT22;51687;52.160;5.298;2023-06-14T21:19:26;26.60;35.80
43995;DHT22;51687;52.160;5.298;2023-06-14T21:21:53;26.60;35.90
43995;DHT22;51687;52.160;5.298;2023-06-14T21:24:23;26.50;36.20
43995;DHT22;51687;52.160;5.298;2023-06-14T21:26:50;26.50;36.40
43995;DHT22;51687;52.160;5.298;2023-06-14T21:29:17;26.50;36.50
43995;DHT22;51687;52.160;5.298;2023-06-14T21:31:44;26.40;36.50
43995;DHT22;51687;52.160;5.298;2023-06-14T21:34:10;26.40;36.60
43995;DHT22;51687;52.160;5.298;2023-06-14T21:36:37;26.30;36.80
43995;DHT22;51687;52.160;5.298;2023-06-14T21:39:04;26.30;37.00
43995;DHT22;51687;52.160;5.298;2023-06-14T21:41:31;26.20;36.90
43995;DHT22;51687;52.160;5.298;2023-06-14T21:43:58;26.20;37.10
43995;DHT22;51687;52.160;5.298;2023-06-14T21:46:24;26.20;37.30
43995;DHT22;51687;52.160;5.298;2023-06-14T21:48:51;26.10;37.20
43995;DHT22;51687;52.160;5.298;2023-06-14T21:51:18;26.10;37.40
43995;DHT22;51687;52.160;5.298;2023-06-14T21:53:45;26.10;37.70
43995;DHT22;51687;52.160;5.298;2023-06-14T21:56:16;26.00;37.70
43995;DHT22;51687;52.160;5.298;2023-06-14T21:58:44;26.00;37.80
43995;DHT22;51687;52.160;5.298;2023-06-14T22:01:11;25.90;38.40
43995;DHT22;51687;52.160;5.298;2023-06-14T22:03:38;25.90;38.00
43995;DHT22;51687;52.160;5.298;2023-06-14T22:06:05;25.80;38.10
43995;DHT22;51687;52.160;5.298;2023-06-14T22:08:33;25.80;38.20
43995;DHT22;51687;52.160;5.298;2023-06-14T22:11:00;25.80;38.30
43995;DHT22;51687;52.160;5.298;2023-06-14T22:13:28;25.80;38.40
43995;DHT22;51687;52.160;5.298;2023-06-14T22:15:59;25.70;38.40
43995;DHT22;51687;52.160;5.298;2023-06-14T22:18:27;25.70;38.60
43995;DHT22;51687;52.160;5.298;2023-06-14T22:20:54;25.70;38.20
43995;DHT22;51687;52.160;5.298;2023-06-14T22:23:23;25.60;38.60
43995;DHT22;51687;52.160;5.298;2023-06-14T22:25:52;25.50;38.10
43995;DHT22;51687;52.160;5.298;2023-06-14T22:28:19;25.50;38.70
43995;DHT22;51687;52.160;5.298;2023-06-14T22:30:46;25.40;38.90
43995;DHT22;51687;52.160;5.298;2023-06-14T22:33:15;25.40;39.10
43995;DHT22;51687;52.160;5.298;2023-06-14T22:35:43;25.30;39.20
43995;DHT22;51687;52.160;5.298;2023-06-14T22:43:06;25.30;38.80
43995;DHT22;51687;52.160;5.298;2023-06-14T22:45:34;25.20;39.50
43995;DHT22;51687;52.160;5.298;2023-06-14T22:48:03;25.20;39.60
43995;DHT22;51687;52.160;5.298;2023-06-14T22:57:56;25.10;39.80
43995;DHT22;51687;52.160;5.298;2023-06-14T23:00:23;25.00;39.00
43995;DHT22;51687;52.160;5.298;2023-06-14T23:07:45;25.00;38.60
43995;DHT22;51687;52.160;5.298;2023-06-14T23:10:13;24.90;38.60
43995;DHT22;51687;52.160;5.298;2023-06-14T23:12:39;24.90;38.50
43995;DHT22;51687;52.160;5.298;2023-06-14T23:15:08;24.90;38.70
43995;DHT22;51687;52.160;5.298;2023-06-14T23:17:36;24.90;38.50
43995;DHT22;51687;52.160;5.298;2023-06-14T23:20:07;24.90;38.80
43995;DHT22;51687;52.160;5.298;2023-06-14T23:22:35;24.90;39.10
43995;DHT22;51687;52.160;5.298;2023-06-14T23:25:03;24.80;39.20
43995;DHT22;51687;52.160;5.298;2023-06-14T23:27:31;24.90;39.30
43995;DHT22;51687;52.160;5.298;2023-06-14T23:30:01;24.80;39.00
43995;DHT22;51687;52.160;5.298;2023-06-14T23:32:30;24.80;39.50
43995;DHT22;51687;52.160;5.298;2023-06-14T23:35:04;24.80;39.70
43995;DHT22;51687;52.160;5.298;2023-06-14T23:37:33;24.80;39.90
43995;DHT22;51687;52.160;5.298;2023-06-14T23:40:00;24.70;39.90
43995;DHT22;51687;52.160;5.298;2023-06-14T23:42:28;24.70;40.00
43995;DHT22;51687;52.160;5.298;2023-06-14T23:44:58;24.70;40.20
43995;DHT22;51687;52.160;5.298;2023-06-14T23:47:29;24.70;40.30
43995;DHT22;51687;52.160;5.298;2023-06-14T23:50:00;24.70;40.50
43995;DHT22;51687;52.160;5.298;2023-06-14T23:52:30;24.70;40.80
43995;DHT22;51687;52.160;5.298;2023-06-14T23:57:28;24.70;40.90
43995;DHT22;51687;52.160;5.298;2023-06-14T23:59:55;24.60;41.00
